sensor_id;sensor_type;location;lat;lon;timestamp;temperature;humidity
66102;HTU21D;52883;51.094;5.880;2024-02-26T00:02:00;5.67;118.99
66102;HTU21D;52883;51.094;5.880;2024-02-26T00:04:25;5.68;118.99
66102;HTU21D;52883;51.094;5.880;2024-02-26T00:06:51;5.64;118.99
66102;HTU21D;52883;51.094;5.880;2024-02-26T00:09:19;5.67;118.99
66102;HTU21D;52883;51.094;5.880;2024-02-26T00:11:45;5.67;118.99
66102;HTU21D;52883;51.094;5.880;2024-02-26T00:14:10;5.66;118.99
66102;HTU21D;52883;51.094;5.880;2024-02-26T00:16:36;5.67;118.99
66102;HTU21D;52883;51.094;5.880;2024-02-26T00:19:01;5.69;118.99
66102;HTU21D;52883;51.094;5.880;2024-02-26T00:21:28;5.70;118.99
66102;HTU21D;52883;51.094;5.880;2024-02-26T00:23:53;5.69;118.99
66102;HTU21D;52883;51.094;5.880;2024-02-26T00:26:19;5.70;118.99
66102;HTU21D;52883;51.094;5.880;2024-02-26T00:28:47;5.68;118.99
66102;HTU21D;52883;51.094;5.880;2024-02-26T00:31:12;5.68;118.99
66102;HTU21D;52883;51.094;5.880;2024-02-26T00:33:38;5.63;118.99
66102;HTU21D;52883;51.094;5.880;2024-02-26T00:36:04;5.63;118.99
66102;HTU21D;52883;51.094;5.880;2024-02-26T00:38:30;5.60;118.99
66102;HTU21D;52883;51.094;5.880;2024-02-26T00:40:55;5.59;118.99
66102;HTU21D;52883;51.094;5.880;2024-02-26T00:43:21;5.55;118.99
66102;HTU21D;52883;51.094;5.880;2024-02-26T00:45:46;5.52;118.99
66102;HTU21D;52883;51.094;5.880;2024-02-26T00:48:12;5.53;118.99
66102;HTU21D;52883;51.094;5.880;2024-02-26T00:50:39;5.54;118.99
66102;HTU21D;52883;51.094;5.880;2024-02-26T00:53:05;5.56;118.99
66102;HTU21D;52883;51.094;5.880;2024-02-26T00:55:31;5.57;118.99
66102;HTU21D;52883;51.094;5.880;2024-02-26T00:57:56;5.60;118.99
66102;HTU21D;52883;51.094;5.880;2024-02-26T01:00:22;5.64;118.99
66102;HTU21D;52883;51.094;5.880;2024-02-26T01:02:48;5.60;118.99
66102;HTU21D;52883;51.094;5.880;2024-02-26T01:05:14;5.56;118.99
66102;HTU21D;52883;51.094;5.880;2024-02-26T01:07:41;5.56;118.99
66102;HTU21D;52883;51.094;5.880;2024-02-26T01:10:07;5.54;118.99
66102;HTU21D;52883;51.094;5.880;2024-02-26T01:12:34;5.53;118.99
66102;HTU21D;52883;51.094;5.880;2024-02-26T01:15:03;5.52;118.99
66102;HTU21D;52883;51.094;5.880;2024-02-26T01:17:30;5.49;118.99
66102;HTU21D;52883;51.094;5.880;2024-02-26T01:19:55;5.47;118.99
66102;HTU21D;52883;51.094;5.880;2024-02-26T01:22:22;5.49;118.99
66102;HTU21D;52883;51.094;5.880;2024-02-26T01:24:48;5.48;118.99
66102;HTU21D;52883;51.094;5.880;2024-02-26T01:27:13;5.51;118.99
66102;HTU21D;52883;51.094;5.880;2024-02-26T01:29:41;5.50;118.99
66102;HTU21D;52883;51.094;5.880;2024-02-26T01:32:06;5.48;118.99
66102;HTU21D;52883;51.094;5.880;2024-02-26T01:34:32;5.47;118.99
66102;HTU21D;52883;51.094;5.880;2024-02-26T01:36:58;5.48;118.99
66102;HTU21D;52883;51.094;5.880;2024-02-26T01:39:23;5.46;118.99
66102;HTU21D;52883;51.094;5.880;2024-02-26T01:41:49;5.46;118.99
66102;HTU21D;52883;51.094;5.880;2024-02-26T01:44:15;5.41;118.99
66102;HTU21D;52883;51.094;5.880;2024-02-26T01:46:41;5.45;118.99
66102;HTU21D;52883;51.094;5.880;2024-02-26T01:49:08;5.46;118.99
66102;HTU21D;52883;51.094;5.880;2024-02-26T01:51:39;5.48;118.99
66102;HTU21D;52883;51.094;5.880;2024-02-26T01:54:08;5.48;118.99
66102;HTU21D;52883;51.094;5.880;2024-02-26T01:56:35;5.45;118.99
66102;HTU21D;52883;51.094;5.880;2024-02-26T01:59:03;5.43;118.99
66102;HTU21D;52883;51.094;5.880;2024-02-26T02:01:33;5.47;118.99
66102;HTU21D;52883;51.094;5.880;2024-02-26T02:04:00;5.45;118.99
66102;HTU21D;52883;51.094;5.880;2024-02-26T02:06:26;5.46;118.99
66102;HTU21D;52883;51.094;5.880;2024-02-26T02:08:56;5.41;118.99
66102;HTU21D;52883;51.094;5.880;2024-02-26T02:11:22;5.38;118.99
66102;HTU21D;52883;51.094;5.880;2024-02-26T02:13:47;5.35;118.99
66102;HTU21D;52883;51.094;5.880;2024-02-26T02:16:13;5.34;118.99
66102;HTU21D;52883;51.094;5.880;2024-02-26T02:18:39;5.34;118.99
66102;HTU21D;52883;51.094;5.880;2024-02-26T02:21:05;5.37;118.99
66102;HTU21D;52883;51.094;5.880;2024-02-26T02:23:30;5.38;118.99
66102;HTU21D;52883;51.094;5.880;2024-02-26T02:25:57;5.36;118.99
66102;HTU21D;52883;51.094;5.880;2024-02-26T02:28:25;5.35;118.99
66102;HTU21D;52883;51.094;5.880;2024-02-26T02:30:52;5.36;118.99
66102;HTU21D;52883;51.094;5.880;2024-02-26T02:33:17;5.37;118.99
66102;HTU21D;52883;51.094;5.880;2024-02-26T02:35:43;5.37;118.99
66102;HTU21D;52883;51.094;5.880;2024-02-26T02:38:09;5.37;118.99
66102;HTU21D;52883;51.094;5.880;2024-02-26T02:40:34;5.38;118.99
66102;HTU21D;52883;51.094;5.880;2024-02-26T02:43:00;5.40;118.99
66102;HTU21D;52883;51.094;5.880;2024-02-26T02:45:30;5.41;118.99
66102;HTU21D;52883;51.094;5.880;2024-02-26T02:47:56;5.41;118.99
66102;HTU21D;52883;51.094;5.880;2024-02-26T02:50:21;5.42;118.99
66102;HTU21D;52883;51.094;5.880;2024-02-26T02:52:47;5.40;118.99
66102;HTU21D;52883;51.094;5.880;2024-02-26T02:55:15;5.43;118.99
66102;HTU21D;52883;51.094;5.880;2024-02-26T02:57:41;5.42;118.99
66102;HTU21D;52883;51.094;5.880;2024-02-26T03:00:11;5.42;118.99
66102;HTU21D;52883;51.094;5.880;2024-02-26T03:02:37;5.39;118.99
66102;HTU21D;52883;51.094;5.880;2024-02-26T03:05:06;5.39;118.99
66102;HTU21D;52883;51.094;5.880;2024-02-26T03:07:32;5.42;118.99
66102;HTU21D;52883;51.094;5.880;2024-02-26T03:09:58;5.46;118.99
66102;HTU21D;52883;51.094;5.880;2024-02-26T03:12:23;5.42;118.99
66102;HTU21D;52883;51.094;5.880;2024-02-26T03:14:49;5.45;118.99
66102;HTU21D;52883;51.094;5.880;2024-02-26T03:17:14;5.47;118.99
66102;HTU21D;52883;51.094;5.880;2024-02-26T03:19:40;5.49;118.99
66102;HTU21D;52883;51.094;5.880;2024-02-26T03:22:06;5.48;118.99
66102;HTU21D;52883;51.094;5.880;2024-02-26T03:24:32;5.51;118.99
66102;HTU21D;52883;51.094;5.880;2024-02-26T03:26:57;5.47;118.99
66102;HTU21D;52883;51.094;5.880;2024-02-26T03:29:23;5.46;118.99
66102;HTU21D;52883;51.094;5.880;2024-02-26T03:31:49;5.47;118.99
66102;HTU21D;52883;51.094;5.880;2024-02-26T03:34:14;5.48;118.99
66102;HTU21D;52883;51.094;5.880;2024-02-26T03:36:41;5.45;118.99
66102;HTU21D;52883;51.094;5.880;2024-02-26T03:39:06;5.46;118.99
66102;HTU21D;52883;51.094;5.880;2024-02-26T03:41:33;5.45;118.99
66102;HTU21D;52883;51.094;5.880;2024-02-26T03:44:00;5.28;118.99
66102;HTU21D;52883;51.094;5.880;2024-02-26T03:46:26;5.30;118.99
66102;HTU21D;52883;51.094;5.880;2024-02-26T03:48:51;5.30;118.99
66102;HTU21D;52883;51.094;5.880;2024-02-26T03:51:17;5.32;118.99
66102;HTU21D;52883;51.094;5.880;2024-02-26T03:53:42;5.33;118.99
66102;HTU21D;52883;51.094;5.880;2024-02-26T03:56:11;5.33;118.99
66102;HTU21D;52883;51.094;5.880;2024-02-26T03:58:37;5.36;118.99
66102;HTU21D;52883;51.094;5.880;2024-02-26T04:01:02;5.37;118.99
66102;HTU21D;52883;51.094;5.880;2024-02-26T04:03:28;5.36;118.99
66102;HTU21D;52883;51.094;5.880;2024-02-26T04:05:53;5.36;118.99
66102;HTU21D;52883;51.094;5.880;2024-02-26T04:08:19;5.36;118.99
66102;HTU21D;52883;51.094;5.880;2024-02-26T04:10:45;5.34;118.99
66102;HTU21D;52883;51.094;5.880;2024-02-26T04:13:11;5.33;118.99
66102;HTU21D;52883;51.094;5.880;2024-02-26T04:15:36;5.31;118.99
66102;HTU21D;52883;51.094;5.880;2024-02-26T04:18:02;5.30;118.99
66102;HTU21D;52883;51.094;5.880;2024-02-26T04:20:28;5.30;118.99
66102;HTU21D;52883;51.094;5.880;2024-02-26T04:22:53;5.28;118.99
66102;HTU21D;52883;51.094;5.880;2024-02-26T04:25:19;5.31;118.99
66102;HTU21D;52883;51.094;5.880;2024-02-26T04:27:44;5.27;118.99
66102;HTU21D;52883;51.094;5.880;2024-02-26T04:30:10;5.27;118.99
66102;HTU21D;52883;51.094;5.880;2024-02-26T04:32:36;5.27;118.99
66102;HTU21D;52883;51.094;5.880;2024-02-26T04:35:02;5.27;118.99
66102;HTU21D;52883;51.094;5.880;2024-02-26T04:37:28;5.31;118.99
66102;HTU21D;52883;51.094;5.880;2024-02-26T04:40:00;5.26;118.99
66102;HTU21D;52883;51.094;5.880;2024-02-26T04:42:26;5.28;118.99
66102;HTU21D;52883;51.094;5.880;2024-02-26T04:44:52;5.28;118.99
66102;HTU21D;52883;51.094;5.880;2024-02-26T04:47:17;5.28;118.99
66102;HTU21D;52883;51.094;5.880;2024-02-26T04:49:43;5.27;118.99
66102;HTU21D;52883;51.094;5.880;2024-02-26T04:52:08;5.24;118.99
66102;HTU21D;52883;51.094;5.880;2024-02-26T04:54:34;5.24;118.99
66102;HTU21D;52883;51.094;5.880;2024-02-26T04:57:00;5.20;118.99
66102;HTU21D;52883;51.094;5.880;2024-02-26T04:59:25;5.22;118.99
66102;HTU21D;52883;51.094;5.880;2024-02-26T05:01:51;5.23;118.99
66102;HTU21D;52883;51.094;5.880;2024-02-26T05:04:18;5.23;118.99
66102;HTU21D;52883;51.094;5.880;2024-02-26T05:10:07;5.36;118.99
66102;HTU21D;52883;51.094;5.880;2024-02-26T05:12:33;5.37;118.99
66102;HTU21D;52883;51.094;5.880;2024-02-26T05:15:01;5.39;118.99
66102;HTU21D;52883;51.094;5.880;2024-02-26T05:17:27;5.35;118.99
66102;HTU21D;52883;51.094;5.880;2024-02-26T05:19:53;5.31;118.99
66102;HTU21D;52883;51.094;5.880;2024-02-26T05:22:19;5.30;118.99
66102;HTU21D;52883;51.094;5.880;2024-02-26T05:24:44;5.27;118.99
66102;HTU21D;52883;51.094;5.880;2024-02-26T05:27:10;5.26;118.99
66102;HTU21D;52883;51.094;5.880;2024-02-26T05:29:36;5.24;118.99
66102;HTU21D;52883;51.094;5.880;2024-02-26T05:32:01;5.24;118.99
66102;HTU21D;52883;51.094;5.880;2024-02-26T05:34:27;5.26;118.99
66102;HTU21D;52883;51.094;5.880;2024-02-26T05:36:52;5.24;118.99
66102;HTU21D;52883;51.094;5.880;2024-02-26T05:39:18;5.25;118.99
66102;HTU21D;52883;51.094;5.880;2024-02-26T05:41:44;5.22;118.99
66102;HTU21D;52883;51.094;5.880;2024-02-26T05:44:11;5.19;118.99
66102;HTU21D;52883;51.094;5.880;2024-02-26T05:46:36;5.21;118.99
66102;HTU21D;52883;51.094;5.880;2024-02-26T05:49:02;5.22;118.99
66102;HTU21D;52883;51.094;5.880;2024-02-26T05:51:28;5.23;118.99
66102;HTU21D;52883;51.094;5.880;2024-02-26T05:53:54;5.20;118.99
66102;HTU21D;52883;51.094;5.880;2024-02-26T05:56:21;5.22;118.99
66102;HTU21D;52883;51.094;5.880;2024-02-26T05:58:47;5.22;118.99
66102;HTU21D;52883;51.094;5.880;2024-02-26T06:01:14;5.19;118.99
66102;HTU21D;52883;51.094;5.880;2024-02-26T06:03:40;5.17;118.99
66102;HTU21D;52883;51.094;5.880;2024-02-26T06:06:06;5.15;118.99
66102;HTU21D;52883;51.094;5.880;2024-02-26T06:08:31;5.12;118.99
66102;HTU21D;52883;51.094;5.880;2024-02-26T06:10:57;5.12;118.99
66102;HTU21D;52883;51.094;5.880;2024-02-26T06:13:22;5.11;118.99
66102;HTU21D;52883;51.094;5.880;2024-02-26T06:15:48;5.10;118.99
66102;HTU21D;52883;51.094;5.880;2024-02-26T06:18:13;5.09;118.99
66102;HTU21D;52883;51.094;5.880;2024-02-26T06:20:39;5.10;118.99
66102;HTU21D;52883;51.094;5.880;2024-02-26T06:23:05;5.07;118.99
66102;HTU21D;52883;51.094;5.880;2024-02-26T06:25:30;5.08;118.99
66102;HTU21D;52883;51.094;5.880;2024-02-26T06:27:56;5.07;118.99
66102;HTU21D;52883;51.094;5.880;2024-02-26T06:30:21;5.07;118.99
66102;HTU21D;52883;51.094;5.880;2024-02-26T06:32:47;5.03;118.99
66102;HTU21D;52883;51.094;5.880;2024-02-26T06:35:12;5.02;118.99
66102;HTU21D;52883;51.094;5.880;2024-02-26T06:37:38;4.96;118.99
66102;HTU21D;52883;51.094;5.880;2024-02-26T06:40:04;4.93;118.99
66102;HTU21D;52883;51.094;5.880;2024-02-26T06:42:32;4.96;118.99
66102;HTU21D;52883;51.094;5.880;2024-02-26T06:44:57;4.97;118.99
66102;HTU21D;52883;51.094;5.880;2024-02-26T06:47:23;4.96;118.99
66102;HTU21D;52883;51.094;5.880;2024-02-26T06:49:49;4.98;118.99
66102;HTU21D;52883;51.094;5.880;2024-02-26T06:52:14;5.00;118.99
66102;HTU21D;52883;51.094;5.880;2024-02-26T06:54:40;4.96;118.99
66102;HTU21D;52883;51.094;5.880;2024-02-26T06:57:05;4.97;118.99
66102;HTU21D;52883;51.094;5.880;2024-02-26T06:59:31;4.97;118.99
66102;HTU21D;52883;51.094;5.880;2024-02-26T07:01:59;4.96;118.99
66102;HTU21D;52883;51.094;5.880;2024-02-26T07:04:24;4.97;118.99
66102;HTU21D;52883;51.094;5.880;2024-02-26T07:06:50;4.96;118.99
66102;HTU21D;52883;51.094;5.880;2024-02-26T07:09:15;5.00;118.99
66102;HTU21D;52883;51.094;5.880;2024-02-26T07:11:41;5.01;118.99
66102;HTU21D;52883;51.094;5.880;2024-02-26T07:14:10;5.01;118.99
66102;HTU21D;52883;51.094;5.880;2024-02-26T07:16:36;5.03;118.99
66102;HTU21D;52883;51.094;5.880;2024-02-26T07:19:02;5.02;118.99
66102;HTU21D;52883;51.094;5.880;2024-02-26T07:21:28;5.02;118.99
66102;HTU21D;52883;51.094;5.880;2024-02-26T07:23:53;5.00;118.99
66102;HTU21D;52883;51.094;5.880;2024-02-26T07:26:19;5.03;118.99
66102;HTU21D;52883;51.094;5.880;2024-02-26T07:28:45;5.06;118.99
66102;HTU21D;52883;51.094;5.880;2024-02-26T07:31:11;5.07;118.99
66102;HTU21D;52883;51.094;5.880;2024-02-26T07:33:36;5.03;118.99
66102;HTU21D;52883;51.094;5.880;2024-02-26T07:36:02;5.06;118.99
66102;HTU21D;52883;51.094;5.880;2024-02-26T07:38:28;5.05;118.99
66102;HTU21D;52883;51.094;5.880;2024-02-26T07:40:53;5.04;118.99
66102;HTU21D;52883;51.094;5.880;2024-02-26T07:43:19;5.02;118.99
66102;HTU21D;52883;51.094;5.880;2024-02-26T07:45:45;5.05;118.99
66102;HTU21D;52883;51.094;5.880;2024-02-26T07:48:10;5.05;118.99
66102;HTU21D;52883;51.094;5.880;2024-02-26T07:50:36;5.08;118.99
66102;HTU21D;52883;51.094;5.880;2024-02-26T07:53:02;5.09;118.99
66102;HTU21D;52883;51.094;5.880;2024-02-26T07:55:27;5.15;118.99
66102;HTU21D;52883;51.094;5.880;2024-02-26T07:57:53;5.13;118.99
66102;HTU21D;52883;51.094;5.880;2024-02-26T08:00:19;5.12;118.99
66102;HTU21D;52883;51.094;5.880;2024-02-26T08:02:44;5.16;118.99
66102;HTU21D;52883;51.094;5.880;2024-02-26T08:05:12;5.18;118.99
66102;HTU21D;52883;51.094;5.880;2024-02-26T08:07:38;5.12;118.99
66102;HTU21D;52883;51.094;5.880;2024-02-26T08:10:04;5.15;118.99
66102;HTU21D;52883;51.094;5.880;2024-02-26T08:12:29;5.15;118.99
66102;HTU21D;52883;51.094;5.880;2024-02-26T08:14:55;5.15;118.99
66102;HTU21D;52883;51.094;5.880;2024-02-26T08:17:21;5.16;118.99
66102;HTU21D;52883;51.094;5.880;2024-02-26T08:19:47;5.17;118.99
66102;HTU21D;52883;51.094;5.880;2024-02-26T08:22:12;5.18;118.99
66102;HTU21D;52883;51.094;5.880;2024-02-26T08:24:44;5.16;118.99
66102;HTU21D;52883;51.094;5.880;2024-02-26T08:27:10;5.19;118.99
66102;HTU21D;52883;51.094;5.880;2024-02-26T08:29:36;5.19;118.99
66102;HTU21D;52883;51.094;5.880;2024-02-26T08:32:01;5.19;118.99
66102;HTU21D;52883;51.094;5.880;2024-02-26T08:34:27;5.18;118.99
66102;HTU21D;52883;51.094;5.880;2024-02-26T08:36:53;5.23;118.99
66102;HTU21D;52883;51.094;5.880;2024-02-26T08:39:18;5.21;118.99
66102;HTU21D;52883;51.094;5.880;2024-02-26T08:41:44;5.22;118.99
66102;HTU21D;52883;51.094;5.880;2024-02-26T08:44:10;5.21;118.99
66102;HTU21D;52883;51.094;5.880;2024-02-26T08:46:39;5.21;118.99
66102;HTU21D;52883;51.094;5.880;2024-02-26T08:49:05;5.24;118.99
66102;HTU21D;52883;51.094;5.880;2024-02-26T08:51:30;5.22;118.99
66102;HTU21D;52883;51.094;5.880;2024-02-26T08:53:56;5.23;118.99
66102;HTU21D;52883;51.094;5.880;2024-02-26T08:56:21;5.26;118.99
66102;HTU21D;52883;51.094;5.880;2024-02-26T08:58:47;5.24;118.99
66102;HTU21D;52883;51.094;5.880;2024-02-26T09:01:15;5.25;118.99
66102;HTU21D;52883;51.094;5.880;2024-02-26T09:03:41;5.24;118.99
66102;HTU21D;52883;51.094;5.880;2024-02-26T09:06:06;5.20;118.99
66102;HTU21D;52883;51.094;5.880;2024-02-26T09:08:35;5.21;118.99
66102;HTU21D;52883;51.094;5.880;2024-02-26T09:11:02;5.26;118.99
66102;HTU21D;52883;51.094;5.880;2024-02-26T09:13:29;5.20;118.99
66102;HTU21D;52883;51.094;5.880;2024-02-26T09:15:54;5.20;118.99
66102;HTU21D;52883;51.094;5.880;2024-02-26T09:18:20;5.21;118.99
66102;HTU21D;52883;51.094;5.880;2024-02-26T09:20:46;5.23;118.99
66102;HTU21D;52883;51.094;5.880;2024-02-26T09:23:11;5.23;118.99
66102;HTU21D;52883;51.094;5.880;2024-02-26T09:25:37;5.25;118.99
66102;HTU21D;52883;51.094;5.880;2024-02-26T09:28:03;5.30;118.99
66102;HTU21D;52883;51.094;5.880;2024-02-26T09:30:29;5.34;118.99
66102;HTU21D;52883;51.094;5.880;2024-02-26T09:32:54;5.38;118.99
66102;HTU21D;52883;51.094;5.880;2024-02-26T09:35:20;5.39;118.99
66102;HTU21D;52883;51.094;5.880;2024-02-26T09:37:46;5.39;118.99
66102;HTU21D;52883;51.094;5.880;2024-02-26T09:40:14;5.39;118.99
66102;HTU21D;52883;51.094;5.880;2024-02-26T09:42:44;5.42;118.99
66102;HTU21D;52883;51.094;5.880;2024-02-26T09:45:17;5.45;118.99
66102;HTU21D;52883;51.094;5.880;2024-02-26T09:47:44;5.49;118.99
66102;HTU21D;52883;51.094;5.880;2024-02-26T09:50:11;5.49;118.99
66102;HTU21D;52883;51.094;5.880;2024-02-26T09:52:40;5.49;118.99
66102;HTU21D;52883;51.094;5.880;2024-02-26T09:55:08;5.51;118.99
66102;HTU21D;52883;51.094;5.880;2024-02-26T09:57:47;5.51;118.99
66102;HTU21D;52883;51.094;5.880;2024-02-26T10:00:17;5.52;118.99
66102;HTU21D;52883;51.094;5.880;2024-02-26T10:02:47;5.54;118.99
66102;HTU21D;52883;51.094;5.880;2024-02-26T10:05:19;5.56;118.99
66102;HTU21D;52883;51.094;5.880;2024-02-26T10:07:45;5.56;118.99
66102;HTU21D;52883;51.094;5.880;2024-02-26T10:10:13;5.63;118.99
66102;HTU21D;52883;51.094;5.880;2024-02-26T10:12:39;5.62;118.99
66102;HTU21D;52883;51.094;5.880;2024-02-26T10:15:05;5.64;118.99
66102;HTU21D;52883;51.094;5.880;2024-02-26T10:17:31;5.59;118.99
66102;HTU21D;52883;51.094;5.880;2024-02-26T10:20:12;5.68;118.99
66102;HTU21D;52883;51.094;5.880;2024-02-26T10:22:38;5.68;118.99
66102;HTU21D;52883;51.094;5.880;2024-02-26T10:25:04;5.67;118.99
66102;HTU21D;52883;51.094;5.880;2024-02-26T10:27:30;5.68;118.99
66102;HTU21D;52883;51.094;5.880;2024-02-26T10:29:56;5.70;118.99
66102;HTU21D;52883;51.094;5.880;2024-02-26T10:32:22;5.72;118.99
66102;HTU21D;52883;51.094;5.880;2024-02-26T10:34:48;5.72;118.99
66102;HTU21D;52883;51.094;5.880;2024-02-26T10:37:20;5.78;118.99
66102;HTU21D;52883;51.094;5.880;2024-02-26T10:39:47;5.84;118.99
66102;HTU21D;52883;51.094;5.880;2024-02-26T10:42:14;5.80;118.99
66102;HTU21D;52883;51.094;5.880;2024-02-26T10:44:40;5.77;118.99
66102;HTU21D;52883;51.094;5.880;2024-02-26T10:47:08;5.78;118.99
66102;HTU21D;52883;51.094;5.880;2024-02-26T10:49:35;5.76;118.99
66102;HTU21D;52883;51.094;5.880;2024-02-26T10:52:01;5.80;118.99
66102;HTU21D;52883;51.094;5.880;2024-02-26T10:54:29;5.77;118.99
66102;HTU21D;52883;51.094;5.880;2024-02-26T10:56:56;5.77;118.99
66102;HTU21D;52883;51.094;5.880;2024-02-26T10:59:23;5.78;118.99
66102;HTU21D;52883;51.094;5.880;2024-02-26T11:01:50;5.82;118.99
66102;HTU21D;52883;51.094;5.880;2024-02-26T11:04:17;5.84;118.99
66102;HTU21D;52883;51.094;5.880;2024-02-26T11:06:44;5.89;118.99
66102;HTU21D;52883;51.094;5.880;2024-02-26T11:09:12;5.91;118.99
66102;HTU21D;52883;51.094;5.880;2024-02-26T11:11:40;5.87;118.99
66102;HTU21D;52883;51.094;5.880;2024-02-26T11:14:08;5.81;118.99
66102;HTU21D;52883;51.094;5.880;2024-02-26T11:16:35;5.81;118.99
66102;HTU21D;52883;51.094;5.880;2024-02-26T11:19:02;5.84;118.99
66102;HTU21D;52883;51.094;5.880;2024-02-26T11:21:29;5.83;118.99
66102;HTU21D;52883;51.094;5.880;2024-02-26T11:24:10;5.82;118.99
66102;HTU21D;52883;51.094;5.880;2024-02-26T11:26:43;5.81;118.99
66102;HTU21D;52883;51.094;5.880;2024-02-26T11:29:13;5.81;118.99
66102;HTU21D;52883;51.094;5.880;2024-02-26T11:31:41;5.80;118.99
66102;HTU21D;52883;51.094;5.880;2024-02-26T11:34:09;5.85;118.99
66102;HTU21D;52883;51.094;5.880;2024-02-26T11:36:36;5.87;118.99
66102;HTU21D;52883;51.094;5.880;2024-02-26T11:39:04;5.90;118.99
66102;HTU21D;52883;51.094;5.880;2024-02-26T11:41:30;5.90;118.99
66102;HTU21D;52883;51.094;5.880;2024-02-26T11:44:01;5.87;118.99
66102;HTU21D;52883;51.094;5.880;2024-02-26T11:46:31;5.90;118.99
66102;HTU21D;52883;51.094;5.880;2024-02-26T11:49:03;5.91;118.99
66102;HTU21D;52883;51.094;5.880;2024-02-26T11:51:33;5.90;118.99
66102;HTU21D;52883;51.094;5.880;2024-02-26T11:54:00;5.89;118.99
66102;HTU21D;52883;51.094;5.880;2024-02-26T11:56:26;5.86;118.99
66102;HTU21D;52883;51.094;5.880;2024-02-26T11:59:36;5.94;118.99
66102;HTU21D;52883;51.094;5.880;2024-02-26T12:02:02;5.86;118.99
66102;HTU21D;52883;51.094;5.880;2024-02-26T12:04:30;5.84;118.99
66102;HTU21D;52883;51.094;5.880;2024-02-26T12:07:02;5.85;118.99
66102;HTU21D;52883;51.094;5.880;2024-02-26T12:12:00;5.78;118.99
66102;HTU21D;52883;51.094;5.880;2024-02-26T12:14:26;5.79;118.99
66102;HTU21D;52883;51.094;5.880;2024-02-26T12:16:53;5.79;118.99
66102;HTU21D;52883;51.094;5.880;2024-02-26T12:19:21;5.83;118.99
66102;HTU21D;52883;51.094;5.880;2024-02-26T12:21:52;5.91;118.99
66102;HTU21D;52883;51.094;5.880;2024-02-26T12:24:19;5.91;118.99
66102;HTU21D;52883;51.094;5.880;2024-02-26T12:26:45;5.89;118.99
66102;HTU21D;52883;51.094;5.880;2024-02-26T12:29:12;5.92;118.99
66102;HTU21D;52883;51.094;5.880;2024-02-26T12:31:40;5.90;118.99
66102;HTU21D;52883;51.094;5.880;2024-02-26T12:34:07;5.93;118.99
66102;HTU21D;52883;51.094;5.880;2024-02-26T12:36:35;6.01;118.99
66102;HTU21D;52883;51.094;5.880;2024-02-26T12:39:02;6.12;118.99
66102;HTU21D;52883;51.094;5.880;2024-02-26T12:41:32;6.20;118.99
66102;HTU21D;52883;51.094;5.880;2024-02-26T12:43:58;6.23;118.99
66102;HTU21D;52883;51.094;5.880;2024-02-26T12:46:24;6.35;118.99
66102;HTU21D;52883;51.094;5.880;2024-02-26T12:48:49;6.40;118.99
66102;HTU21D;52883;51.094;5.880;2024-02-26T12:51:17;6.41;118.99
66102;HTU21D;52883;51.094;5.880;2024-02-26T12:53:45;6.36;118.99
66102;HTU21D;52883;51.094;5.880;2024-02-26T12:56:11;6.36;118.99
66102;HTU21D;52883;51.094;5.880;2024-02-26T12:58:41;6.37;118.99
66102;HTU21D;52883;51.094;5.880;2024-02-26T13:01:07;6.42;118.99
66102;HTU21D;52883;51.094;5.880;2024-02-26T13:03:39;6.38;118.99
66102;HTU21D;52883;51.094;5.880;2024-02-26T13:06:06;6.40;118.99
66102;HTU21D;52883;51.094;5.880;2024-02-26T13:08:32;6.49;118.99
66102;HTU21D;52883;51.094;5.880;2024-02-26T13:10:59;6.42;118.99
66102;HTU21D;52883;51.094;5.880;2024-02-26T13:13:25;6.38;118.99
66102;HTU21D;52883;51.094;5.880;2024-02-26T13:16:01;6.42;118.99
66102;HTU21D;52883;51.094;5.880;2024-02-26T13:18:28;6.45;118.99
66102;HTU21D;52883;51.094;5.880;2024-02-26T13:21:17;6.48;118.99
66102;HTU21D;52883;51.094;5.880;2024-02-26T13:23:43;6.50;118.99
66102;HTU21D;52883;51.094;5.880;2024-02-26T13:26:22;6.53;118.99
66102;HTU21D;52883;51.094;5.880;2024-02-26T13:29:01;6.60;118.99
66102;HTU21D;52883;51.094;5.880;2024-02-26T13:31:28;6.67;118.99
66102;HTU21D;52883;51.094;5.880;2024-02-26T13:33:54;6.64;118.99
66102;HTU21D;52883;51.094;5.880;2024-02-26T13:36:24;6.63;118.99
66102;HTU21D;52883;51.094;5.880;2024-02-26T13:38:54;6.55;118.99
66102;HTU21D;52883;51.094;5.880;2024-02-26T13:41:21;6.46;118.99
66102;HTU21D;52883;51.094;5.880;2024-02-26T13:43:47;6.44;118.99
66102;HTU21D;52883;51.094;5.880;2024-02-26T13:46:14;6.37;118.99
66102;HTU21D;52883;51.094;5.880;2024-02-26T13:48:43;6.37;118.99
66102;HTU21D;52883;51.094;5.880;2024-02-26T13:51:09;6.39;118.99
66102;HTU21D;52883;51.094;5.880;2024-02-26T13:53:35;6.35;118.99
66102;HTU21D;52883;51.094;5.880;2024-02-26T13:56:01;6.25;118.99
66102;HTU21D;52883;51.094;5.880;2024-02-26T13:58:29;6.20;118.99
66102;HTU21D;52883;51.094;5.880;2024-02-26T14:00:55;6.13;118.99
66102;HTU21D;52883;51.094;5.880;2024-02-26T14:03:21;6.13;118.99
66102;HTU21D;52883;51.094;5.880;2024-02-26T14:05:47;6.16;118.99
66102;HTU21D;52883;51.094;5.880;2024-02-26T14:08:12;6.22;118.99
66102;HTU21D;52883;51.094;5.880;2024-02-26T14:10:38;6.23;118.99
66102;HTU21D;52883;51.094;5.880;2024-02-26T14:13:04;6.34;118.99
66102;HTU21D;52883;51.094;5.880;2024-02-26T14:15:30;6.28;118.99
66102;HTU21D;52883;51.094;5.880;2024-02-26T14:17:56;6.22;118.99
66102;HTU21D;52883;51.094;5.880;2024-02-26T14:20:23;6.27;118.99
66102;HTU21D;52883;51.094;5.880;2024-02-26T14:22:50;6.23;118.99
66102;HTU21D;52883;51.094;5.880;2024-02-26T14:25:17;6.25;118.99
66102;HTU21D;52883;51.094;5.880;2024-02-26T14:27:43;6.21;118.99
66102;HTU21D;52883;51.094;5.880;2024-02-26T14:30:12;6.23;118.99
66102;HTU21D;52883;51.094;5.880;2024-02-26T14:32:37;6.28;118.99
66102;HTU21D;52883;51.094;5.880;2024-02-26T14:35:09;6.27;118.99
66102;HTU21D;52883;51.094;5.880;2024-02-26T14:37:36;6.28;118.99
66102;HTU21D;52883;51.094;5.880;2024-02-26T14:40:02;6.29;118.99
66102;HTU21D;52883;51.094;5.880;2024-02-26T14:42:29;6.30;118.99
66102;HTU21D;52883;51.094;5.880;2024-02-26T14:44:55;6.41;118.99
66102;HTU21D;52883;51.094;5.880;2024-02-26T14:47:20;6.46;118.99
66102;HTU21D;52883;51.094;5.880;2024-02-26T14:49:46;6.44;118.99
66102;HTU21D;52883;51.094;5.880;2024-02-26T14:52:14;6.42;118.99
66102;HTU21D;52883;51.094;5.880;2024-02-26T14:54:40;6.41;118.99
66102;HTU21D;52883;51.094;5.880;2024-02-26T14:57:05;6.41;118.99
66102;HTU21D;52883;51.094;5.880;2024-02-26T14:59:32;6.41;118.99
66102;HTU21D;52883;51.094;5.880;2024-02-26T15:01:58;6.35;118.99
66102;HTU21D;52883;51.094;5.880;2024-02-26T15:04:26;6.23;118.99
66102;HTU21D;52883;51.094;5.880;2024-02-26T15:06:52;6.21;118.99
66102;HTU21D;52883;51.094;5.880;2024-02-26T15:09:18;6.20;118.99
66102;HTU21D;52883;51.094;5.880;2024-02-26T15:11:43;6.25;118.99
66102;HTU21D;52883;51.094;5.880;2024-02-26T15:14:10;6.22;118.99
66102;HTU21D;52883;51.094;5.880;2024-02-26T15:16:36;6.27;118.99
66102;HTU21D;52883;51.094;5.880;2024-02-26T15:19:02;6.26;118.99